Time;durP1;ratioP1;P1;durP2;ratioP2;P2;SDS_P1;SDS_P2;PMS_P1;PMS_P2;Temp;Humidity;BMP_temperature;BMP_pressure;BME280_temperature;BME280_humidity;BME280_pressure;Samples;Min_cycle;Max_cycle;Signal;HPM_P1;HPM_P2
2024/03/19 00:02:07;;;;;;;7.17;6.87;;;21.10;64.00;;;;;;4973232;28;20452;-62
2024/03/19 00:04:34;;;;;;;8.03;7.50;;;21.10;64.00;;;;;;4973131;28;20439;-63
2024/03/19 00:07:02;;;;;;;8.27;7.70;;;21.10;63.80;;;;;;4983056;28;20434;-64
2024/03/19 00:09:29;;;;;;;7.67;7.23;;;21.10;63.80;;;;;;4992330;28;20517;-60
2024/03/19 00:11:56;;;;;;;7.53;7.20;;;21.10;63.80;;;;;;4992342;28;20450;-61
2024/03/19 00:14:23;;;;;;;8.20;7.60;;;21.10;63.70;;;;;;4996502;28;20808;-61
2024/03/19 00:16:51;;;;;;;9.00;8.20;;;21.10;63.60;;;;;;4996071;28;20442;-62
2024/03/19 00:19:19;;;;;;;7.90;7.50;;;21.10;63.60;;;;;;4981526;28;20471;-63
2024/03/19 00:21:46;;;;;;;8.97;8.47;;;21.10;63.70;;;;;;4976719;28;20523;-63
2024/03/19 00:24:13;;;;;;;8.17;7.67;;;21.10;63.90;;;;;;4976767;28;20458;-62
2024/03/19 00:26:41;;;;;;;8.00;7.50;;;21.10;63.80;;;;;;4976387;28;20547;-60
2024/03/19 00:29:08;;;;;;;8.10;7.60;;;21.10;63.70;;;;;;4976688;28;20514;-61
2024/03/19 00:31:36;;;;;;;7.40;7.10;;;21.10;63.50;;;;;;4994037;28;20435;-63
2024/03/19 00:34:05;;;;;;;8.63;7.87;;;21.10;63.40;;;;;;4996126;28;20447;-62
2024/03/19 00:36:31;;;;;;;7.30;7.00;;;21.10;63.40;;;;;;4995641;28;20818;-60
2024/03/19 00:38:59;;;;;;;8.00;7.50;;;21.00;63.40;;;;;;4985932;28;20459;-62
2024/03/19 00:41:28;;;;;;;7.90;7.40;;;21.10;63.50;;;;;;4976432;28;20484;-61
2024/03/19 00:43:55;;;;;;;7.37;7.00;;;21.10;63.40;;;;;;4976611;28;20460;-62
2024/03/19 00:46:24;;;;;;;8.17;7.77;;;21.10;63.30;;;;;;4976187;28;20452;-63
2024/03/19 00:48:50;;;;;;;8.10;7.60;;;21.00;63.20;;;;;;4984518;28;20459;-63
2024/03/19 00:51:18;;;;;;;8.30;7.80;;;21.00;63.10;;;;;;4995696;28;20968;-63
2024/03/19 00:53:45;;;;;;;8.10;7.50;;;21.10;63.20;;;;;;4995732;28;20453;-63
2024/03/19 00:56:12;;;;;;;8.47;7.87;;;21.10;63.20;;;;;;4988205;28;20474;-62
2024/03/19 00:58:40;;;;;;;8.40;7.67;;;21.10;63.20;;;;;;4975998;28;20471;-62
2024/03/19 01:01:07;;;;;;;8.40;7.87;;;21.00;63.00;;;;;;4976321;28;20483;-61
2024/03/19 01:03:34;;;;;;;7.90;7.50;;;21.00;63.00;;;;;;4976002;28;20439;-63
2024/03/19 01:06:01;;;;;;;7.70;7.30;;;21.00;63.10;;;;;;4975716;28;20483;-62
2024/03/19 01:08:29;;;;;;;9.10;8.50;;;21.00;63.10;;;;;;4975876;28;20467;-62
2024/03/19 01:11:02;;;;;;;7.97;7.43;;;21.00;63.00;;;;;;4975900;28;20439;-63
2024/03/19 01:13:29;;;;;;;8.20;7.63;;;21.00;63.00;;;;;;4975832;28;20444;-62
2024/03/19 01:15:56;;;;;;;8.00;7.60;;;21.00;62.90;;;;;;4988545;28;20488;-63
2024/03/19 01:18:23;;;;;;;8.00;7.60;;;21.00;62.90;;;;;;4995271;28;20470;-63
2024/03/19 01:20:49;;;;;;;8.10;7.67;;;21.00;62.80;;;;;;4994938;28;20482;-62
2024/03/19 01:23:16;;;;;;;7.37;6.97;;;21.00;62.70;;;;;;4994697;28;20943;-63
2024/03/19 01:25:46;;;;;;;7.50;7.07;;;21.10;62.80;;;;;;4994046;28;20442;-63
2024/03/19 01:28:15;;;;;;;7.60;7.20;;;21.00;62.70;;;;;;4994908;28;20471;-62
2024/03/19 01:30:42;;;;;;;8.20;7.80;;;21.00;62.90;;;;;;4994257;28;20443;-63
2024/03/19 01:33:09;;;;;;;7.73;7.23;;;21.00;63.00;;;;;;4994935;28;20439;-63
2024/03/19 01:35:36;;;;;;;7.33;7.00;;;21.00;63.00;;;;;;4994485;28;20439;-62
2024/03/19 01:38:03;;;;;;;7.63;7.20;;;21.00;63.10;;;;;;4994841;28;20935;-63
2024/03/19 01:40:30;;;;;;;7.30;6.90;;;21.00;63.10;;;;;;4994622;28;20483;-62
2024/03/19 01:42:58;;;;;;;8.33;7.87;;;21.00;63.00;;;;;;4990034;28;20440;-63
2024/03/19 01:45:25;;;;;;;8.47;7.87;;;21.00;63.10;;;;;;4975014;28;20816;-63
2024/03/19 01:47:52;;;;;;;8.37;7.87;;;21.00;62.90;;;;;;4975056;28;20436;-62
2024/03/19 01:50:19;;;;;;;8.10;7.60;;;21.00;62.90;;;;;;4975118;28;20444;-63
2024/03/19 01:52:49;;;;;;;7.60;7.20;;;20.90;62.70;;;;;;4975082;28;20439;-62
2024/03/19 01:55:17;;;;;;;7.30;6.90;;;21.00;62.80;;;;;;4974708;28;20933;-61
2024/03/19 01:57:44;;;;;;;13.33;8.27;;;21.00;62.70;;;;;;4985127;28;20442;-62
2024/03/19 02:00:15;;;;;;;7.33;7.00;;;21.00;62.70;;;;;;4994234;28;20486;-62
2024/03/19 02:02:42;;;;;;;7.90;7.40;;;20.90;62.60;;;;;;4986825;28;20522;-62
2024/03/19 02:05:10;;;;;;;7.40;7.00;;;20.90;62.60;;;;;;4974489;28;20447;-61
2024/03/19 02:07:37;;;;;;;7.73;7.30;;;20.90;62.50;;;;;;4974663;28;20538;-63
2024/03/19 02:10:07;;;;;;;7.87;7.30;;;20.90;63.20;;;;;;4974680;28;20468;-61
2024/03/19 02:12:34;;;;;;;7.80;7.30;;;20.90;62.20;;;;;;4975275;28;20852;-61
2024/03/19 02:15:01;;;;;;;7.60;7.10;;;20.90;62.30;;;;;;4974275;28;20447;-62
2024/03/19 02:17:29;;;;;;;8.10;7.67;;;20.90;62.30;;;;;;4974597;28;20444;-63
2024/03/19 02:19:57;;;;;;;8.30;7.80;;;20.90;62.20;;;;;;4974317;28;20993;-62
2024/03/19 02:22:28;;;;;;;7.90;7.40;;;20.90;62.40;;;;;;4974906;28;20530;-61
2024/03/19 02:24:54;;;;;;;7.40;7.00;;;20.90;62.30;;;;;;4993500;28;20501;-63
2024/03/19 02:27:21;;;;;;;8.10;7.60;;;20.90;62.20;;;;;;4993801;28;20450;-62
2024/03/19 02:29:48;;;;;;;8.23;7.80;;;20.90;62.30;;;;;;4993802;28;20466;-62
2024/03/19 02:32:15;;;;;;;8.03;7.53;;;20.90;62.20;;;;;;4993676;28;20454;-62
2024/03/19 02:34:43;;;;;;;7.90;7.47;;;20.90;62.20;;;;;;4993485;28;20446;-61
2024/03/19 02:37:10;;;;;;;7.90;7.50;;;20.90;62.20;;;;;;4990176;28;20832;-60
2024/03/19 02:39:38;;;;;;;7.83;7.30;;;20.90;62.00;;;;;;4980548;28;20466;-63
2024/03/19 02:42:06;;;;;;;7.50;7.00;;;20.90;62.00;;;;;;4993412;28;20487;-63
2024/03/19 02:44:33;;;;;;;7.67;7.27;;;20.80;61.90;;;;;;4993610;28;20435;-63
2024/03/19 02:46:59;;;;;;;8.23;7.73;;;20.90;62.00;;;;;;4993010;28;20467;-63
2024/03/19 02:49:26;;;;;;;7.83;7.33;;;20.80;61.90;;;;;;4993544;28;20467;-63
2024/03/19 02:51:54;;;;;;;8.00;7.50;;;20.80;61.80;;;;;;4987981;28;20439;-62
2024/03/19 02:54:23;;;;;;;8.17;7.67;;;20.80;61.90;;;;;;4974123;28;20805;-62
2024/03/19 02:56:51;;;;;;;8.30;7.90;;;20.80;61.80;;;;;;4973965;28;20439;-62
2024/03/19 02:59:18;;;;;;;9.87;8.77;;;20.80;61.80;;;;;;4974383;28;20472;-60
2024/03/19 03:01:46;;;;;;;7.67;7.23;;;20.80;61.80;;;;;;4974585;28;20487;-62
2024/03/19 03:04:13;;;;;;;7.37;6.97;;;20.80;61.90;;;;;;4974447;28;20448;-61
2024/03/19 03:06:41;;;;;;;7.30;6.90;;;20.80;61.90;;;;;;4982782;28;20562;-61
2024/03/19 03:09:09;;;;;;;7.80;7.30;;;20.80;61.90;;;;;;4994327;28;20474;-62
2024/03/19 03:11:37;;;;;;;8.00;7.60;;;20.80;61.80;;;;;;4993565;28;20439;-62
2024/03/19 03:14:05;;;;;;;7.30;6.90;;;20.80;61.70;;;;;;4992057;28;20447;-62
2024/03/19 03:16:32;;;;;;;7.93;7.63;;;20.80;61.70;;;;;;4973881;28;20479;-63
2024/03/19 03:18:58;;;;;;;8.23;7.73;;;20.80;61.80;;;;;;4973526;28;20482;-62
2024/03/19 03:21:25;;;;;;;6.73;6.33;;;20.80;61.80;;;;;;4984407;28;20486;-62
2024/03/19 03:23:53;;;;;;;7.77;7.37;;;20.80;61.90;;;;;;4993290;28;20879;-62
2024/03/19 03:26:20;;;;;;;7.57;7.17;;;20.80;61.90;;;;;;4992625;28;20458;-61
2024/03/19 03:28:47;;;;;;;7.97;7.57;;;20.80;61.90;;;;;;4993024;28;20471;-62
2024/03/19 03:31:17;;;;;;;7.20;6.90;;;20.80;61.80;;;;;;4992929;28;20450;-62
2024/03/19 03:33:44;;;;;;;6.80;6.43;;;20.80;61.80;;;;;;4993157;28;20450;-63
2024/03/19 03:36:11;;;;;;;7.50;7.10;;;20.80;61.90;;;;;;4975048;28;20435;-62
2024/03/19 03:38:38;;;;;;;7.27;6.77;;;20.80;61.80;;;;;;4973395;28;20478;-62
2024/03/19 03:41:07;;;;;;;7.03;6.53;;;20.80;61.80;;;;;;4973521;28;20857;-61
2024/03/19 03:43:35;;;;;;;7.57;7.17;;;20.80;61.70;;;;;;4973527;28;20546;-63
2024/03/19 03:46:02;;;;;;;7.50;7.10;;;20.80;61.80;;;;;;4973131;28;20472;-61
2024/03/19 03:48:30;;;;;;;7.93;7.43;;;20.80;61.60;;;;;;4975126;28;20475;-63
2024/03/19 03:50:56;;;;;;;6.90;6.60;;;20.80;61.80;;;;;;4992694;28;20442;-63
2024/03/19 03:53:24;;;;;;;7.33;6.93;;;20.80;61.70;;;;;;4992820;28;20867;-63
2024/03/19 03:55:51;;;;;;;8.13;7.63;;;20.80;61.60;;;;;;4992313;28;20446;-62
2024/03/19 03:58:18;;;;;;;7.47;7.07;;;20.80;61.60;;;;;;4992657;28;20459;-61
2024/03/19 04:00:45;;;;;;;6.90;6.60;;;20.80;61.70;;;;;;4992596;28;20447;-63
2024/03/19 04:03:14;;;;;;;7.70;7.20;;;20.80;61.80;;;;;;4986439;28;20965;-62
2024/03/19 04:05:42;;;;;;;6.50;6.30;;;20.80;61.80;;;;;;4972943;28;20694;-63
2024/03/19 04:08:09;;;;;;;7.60;7.20;;;20.80;61.90;;;;;;4973144;28;20464;-62
2024/03/19 04:10:36;;;;;;;7.87;7.47;;;20.80;61.90;;;;;;4973274;28;20447;-63
2024/03/19 04:13:04;;;;;;;7.07;6.73;;;20.70;61.80;;;;;;4972986;28;20507;-62
2024/03/19 04:15:30;;;;;;;7.43;7.03;;;20.80;61.80;;;;;;4972704;28;20459;-63
2024/03/19 04:17:58;;;;;;;7.50;6.80;;;20.80;61.90;;;;;;4984697;28;20443;-62
2024/03/19 04:20:25;;;;;;;7.10;6.90;;;20.80;61.80;;;;;;4992402;28;20450;-62
2024/03/19 04:22:53;;;;;;;7.33;6.97;;;20.80;61.70;;;;;;4992328;28;20478;-63
2024/03/19 04:25:21;;;;;;;7.67;7.07;;;20.70;61.50;;;;;;4987506;28;20451;-63
2024/03/19 04:27:47;;;;;;;6.93;6.50;;;20.80;61.60;;;;;;4973099;28;20531;-63
2024/03/19 04:30:15;;;;;;;7.83;7.20;;;20.80;61.70;;;;;;4972974;28;20829;-62
2024/03/19 04:32:42;;;;;;;7.03;6.63;;;20.80;61.80;;;;;;4988571;28;20439;-60
2024/03/19 04:35:09;;;;;;;7.93;7.53;;;20.80;61.80;;;;;;4992021;28;20449;-61
2024/03/19 04:37:37;;;;;;;7.20;6.90;;;20.80;61.70;;;;;;4992312;28;20443;-63
2024/03/19 04:40:09;;;;;;;7.47;7.17;;;20.70;61.60;;;;;;4992252;28;20467;-63
2024/03/19 04:42:36;;;;;;;7.73;7.40;;;20.80;61.70;;;;;;4992081;28;20479;-63
2024/03/19 04:45:04;;;;;;;7.60;7.17;;;20.80;61.70;;;;;;4988992;28;20447;-63
2024/03/19 04:47:31;;;;;;;7.93;7.47;;;20.70;61.80;;;;;;4972722;28;20452;-60
2024/03/19 04:49:58;;;;;;;8.70;7.63;;;20.70;61.80;;;;;;4972655;28;20471;-62
2024/03/19 04:52:25;;;;;;;8.03;7.37;;;20.70;61.60;;;;;;4972703;28;20455;-63
2024/03/19 04:54:52;;;;;;;7.07;6.77;;;20.80;61.50;;;;;;4986774;28;20450;-63
2024/03/19 04:57:20;;;;;;;8.17;7.57;;;20.80;61.60;;;;;;4991769;28;20479;-63
2024/03/19 04:59:48;;;;;;;8.17;7.67;;;20.80;62.00;;;;;;4986460;28;20468;-63
2024/03/19 05:02:14;;;;;;;8.50;7.80;;;20.80;62.80;;;;;;4975920;28;20485;-62
2024/03/19 05:04:41;;;;;;;9.33;8.43;;;20.90;63.40;;;;;;4976284;28;20818;-62
2024/03/19 05:07:09;;;;;;;9.10;8.13;;;20.90;64.10;;;;;;4975763;28;20878;-62
2024/03/19 05:09:36;;;;;;;9.37;8.47;;;20.90;64.90;;;;;;4975930;28;20467;-62
2024/03/19 05:12:03;;;;;;;17.00;13.10;;;20.90;65.90;;;;;;4975911;28;20440;-62
2024/03/19 05:14:31;;;;;;;14.23;9.10;;;20.90;67.50;;;;;;4986863;28;20439;-63
2024/03/19 05:16:58;;;;;;;15.03;10.17;;;20.90;69.40;;;;;;4994849;28;20442;-61
2024/03/19 05:19:25;;;;;;;11.50;9.60;;;20.90;72.00;;;;;;4995088;28;20470;-62
2024/03/19 05:21:52;;;;;;;12.90;9.70;;;20.90;74.50;;;;;;4995047;28;20999;-62
2024/03/19 05:24:18;;;;;;;13.90;9.50;;;20.90;75.50;;;;;;4995133;28;20483;-62
2024/03/19 05:26:45;;;;;;;13.13;9.90;;;20.90;76.10;;;;;;4994755;28;20443;-62
2024/03/19 05:29:12;;;;;;;10.07;9.07;;;20.90;76.00;;;;;;4978573;28;21050;-60
2024/03/19 05:31:40;;;;;;;11.20;10.20;;;20.90;76.80;;;;;;4975527;28;20455;-61
2024/03/19 05:34:08;;;;;;;13.10;8.80;;;21.00;75.80;;;;;;4975866;28;20966;-63
2024/03/19 05:36:34;;;;;;;11.23;10.23;;;20.90;75.40;;;;;;4975115;28;20805;-62
2024/03/19 05:39:08;;;;;;;15.07;9.17;;;20.90;75.00;;;;;;4975293;28;20464;-62
2024/03/19 05:41:35;;;;;;;14.27;8.67;;;20.90;74.70;;;;;;4977123;28;20444;-62
2024/03/19 05:44:03;;;;;;;12.33;9.13;;;20.90;75.40;;;;;;4994801;28;20443;-63
2024/03/19 05:46:30;;;;;;;11.03;8.43;;;21.00;75.00;;;;;;4994395;28;20447;-62
2024/03/19 05:48:58;;;;;;;11.03;9.93;;;20.90;74.50;;;;;;4994596;28;20459;-62
2024/03/19 05:51:25;;;;;;;10.60;9.23;;;21.00;74.30;;;;;;4994567;28;20447;-62
2024/03/19 05:53:51;;;;;;;12.27;10.37;;;21.00;74.60;;;;;;4994576;28;20945;-62
2024/03/19 05:56:18;;;;;;;8.90;8.50;;;20.90;74.30;;;;;;4986044;28;20448;-62
2024/03/19 05:58:45;;;;;;;8.77;8.07;;;20.90;74.20;;;;;;4974963;28;20472;-61
2024/03/19 06:01:12;;;;;;;9.97;9.20;;;20.90;74.30;;;;;;4974903;28;20452;-61
2024/03/19 06:03:39;;;;;;;9.47;8.83;;;21.00;74.70;;;;;;4974811;28;20574;-61
2024/03/19 06:06:09;;;;;;;13.23;9.77;;;21.00;74.70;;;;;;4974873;28;20440;-63
2024/03/19 06:08:36;;;;;;;10.10;9.17;;;20.90;74.40;;;;;;4975006;28;20464;-62
2024/03/19 06:11:04;;;;;;;10.10;9.40;;;21.00;74.50;;;;;;4988070;28;20462;-63
2024/03/19 06:13:31;;;;;;;11.53;10.40;;;20.90;74.60;;;;;;4994081;28;20446;-62
2024/03/19 06:15:58;;;;;;;9.47;8.60;;;20.90;74.30;;;;;;4993731;28;20455;-59
2024/03/19 06:18:25;;;;;;;9.70;9.00;;;20.90;74.20;;;;;;5019485;23;20836;-60
2024/03/19 06:20:51;;;;;;;10.67;9.70;;;20.90;74.10;;;;;;4993551;28;20450;-62
2024/03/19 06:23:20;;;;;;;9.60;8.80;;;20.90;73.80;;;;;;4993837;28;20486;-62
2024/03/19 06:25:46;;;;;;;9.80;8.87;;;20.90;73.50;;;;;;4990360;28;20442;-62
2024/03/19 06:28:14;;;;;;;8.93;8.43;;;20.90;73.30;;;;;;4993775;28;20446;-63
2024/03/19 06:30:40;;;;;;;8.23;7.73;;;20.90;73.40;;;;;;4993388;28;20471;-60
2024/03/19 06:33:07;;;;;;;13.03;9.07;;;20.90;73.40;;;;;;4993613;28;20978;-63
2024/03/19 06:35:34;;;;;;;9.77;8.73;;;20.90;73.20;;;;;;4993181;28;20861;-62
2024/03/19 06:38:02;;;;;;;9.23;8.70;;;21.00;73.10;;;;;;4993221;28;20443;-62
2024/03/19 06:40:31;;;;;;;9.40;8.80;;;21.00;73.20;;;;;;4987600;28;20495;-62
2024/03/19 06:42:57;;;;;;;8.90;8.30;;;21.00;73.20;;;;;;4993184;28;20592;-63
2024/03/19 06:45:26;;;;;;;9.20;8.70;;;20.90;73.00;;;;;;4993015;28;20527;-62
2024/03/19 06:47:53;;;;;;;8.90;8.30;;;20.90;73.00;;;;;;4993249;28;20868;-68
2024/03/19 06:50:20;;;;;;;9.30;8.50;;;20.90;73.10;;;;;;4993238;28;20475;-66
2024/03/19 06:52:46;;;;;;;8.67;7.97;;;21.00;72.80;;;;;;4992590;28;20434;-64
2024/03/19 06:55:14;;;;;;;7.43;7.10;;;21.00;72.10;;;;;;4981335;28;20851;-65
2024/03/19 06:57:42;;;;;;;9.13;8.50;;;21.00;71.90;;;;;;4992159;28;20489;-65
2024/03/19 07:00:13;;;;;;;9.03;8.50;;;21.00;72.00;;;;;;4993054;28;20966;-65
2024/03/19 07:02:41;;;;;;;9.17;8.30;;;21.00;72.00;;;;;;4993150;28;20484;-65
2024/03/19 07:05:08;;;;;;;9.07;8.37;;;21.00;72.20;;;;;;4992604;28;20443;-64
2024/03/19 07:07:35;;;;;;;8.60;8.00;;;21.10;72.70;;;;;;4985609;28;20454;-63
2024/03/19 07:10:02;;;;;;;8.47;8.07;;;21.10;72.00;;;;;;4992869;28;20458;-64
2024/03/19 07:12:29;;;;;;;9.10;8.70;;;21.10;71.80;;;;;;4992740;28;20443;-63
2024/03/19 07:14:59;;;;;;;8.63;8.13;;;21.10;71.80;;;;;;4992733;28;20449;-64
2024/03/19 07:17:26;;;;;;;9.27;8.67;;;21.10;71.90;;;;;;4992661;28;20443;-64
2024/03/19 07:19:54;;;;;;;7.80;7.20;;;21.10;72.00;;;;;;4989764;28;20502;-64
2024/03/19 07:22:21;;;;;;;8.83;8.30;;;21.10;72.10;;;;;;4983476;28;20514;-64
2024/03/19 07:24:48;;;;;;;8.83;8.00;;;21.10;72.10;;;;;;4992336;28;20445;-62
2024/03/19 07:27:14;;;;;;;8.37;7.97;;;21.20;72.00;;;;;;4992054;28;20450;-63
2024/03/19 07:29:41;;;;;;;9.10;8.60;;;21.20;72.00;;;;;;4992662;28;20474;-63
2024/03/19 07:32:10;;;;;;;9.53;8.60;;;21.20;71.80;;;;;;4986949;28;20480;-62
2024/03/19 07:34:37;;;;;;;8.40;7.90;;;21.20;71.80;;;;;;4984668;28;20471;-68
2024/03/19 07:37:04;;;;;;;8.40;8.00;;;21.20;73.20;;;;;;4992135;28;20530;-67
2024/03/19 07:39:31;;;;;;;9.07;8.40;;;21.20;71.80;;;;;;4992345;28;20602;-65
2024/03/19 07:41:59;;;;;;;8.20;7.80;;;21.20;71.70;;;;;;4992224;28;20443;-67
2024/03/19 07:44:26;;;;;;;8.80;8.10;;;21.30;71.90;;;;;;4991382;28;20454;-65
2024/03/19 07:46:52;;;;;;;7.90;7.50;;;21.30;72.20;;;;;;4983986;28;20454;-66
2024/03/19 07:49:20;;;;;;;9.37;8.90;;;21.30;72.30;;;;;;4992328;28;20475;-68
2024/03/19 07:51:47;;;;;;;8.87;8.27;;;21.30;72.30;;;;;;4991577;28;20450;-70
2024/03/19 07:54:14;;;;;;;8.40;7.70;;;21.30;72.20;;;;;;4984171;28;20438;-69
2024/03/19 07:56:43;;;;;;;8.17;7.67;;;21.30;71.90;;;;;;4988272;28;20945;-67
2024/03/19 07:59:10;;;;;;;8.40;7.60;;;21.30;71.80;;;;;;4979670;28;20474;-69
2024/03/19 08:01:36;;;;;;;9.00;8.50;;;21.30;71.60;;;;;;4992225;28;20457;-68
2024/03/19 08:04:03;;;;;;;8.27;7.87;;;21.30;71.50;;;;;;4992189;28;20885;-69
2024/03/19 08:06:32;;;;;;;8.57;8.10;;;21.30;71.40;;;;;;4991535;28;20970;-66
2024/03/19 08:08:59;;;;;;;7.77;7.43;;;21.30;71.30;;;;;;4991007;28;20988;-66
2024/03/19 08:11:26;;;;;;;8.87;8.30;;;21.40;71.40;;;;;;4985296;28;20455;-67
2024/03/19 08:13:52;;;;;;;7.90;7.40;;;21.40;71.40;;;;;;4983626;28;20435;-68
2024/03/19 08:16:19;;;;;;;8.43;8.00;;;21.40;71.20;;;;;;4991691;28;20447;-68
2024/03/19 08:18:48;;;;;;;7.83;7.53;;;21.40;71.00;;;;;;4992006;28;20463;-69
2024/03/19 08:21:15;;;;;;;8.37;7.77;;;21.40;70.90;;;;;;4991445;28;20447;-64
2024/03/19 08:23:46;;;;;;;8.83;8.43;;;21.40;70.80;;;;;;4983980;28;20852;-67
2024/03/19 08:26:14;;;;;;;7.93;7.47;;;21.40;70.80;;;;;;4991445;28;20451;-66
2024/03/19 08:28:41;;;;;;;8.53;8.00;;;21.40;70.80;;;;;;4991725;28;20944;-66
2024/03/19 08:31:09;;;;;;;7.67;7.27;;;21.40;70.70;;;;;;4992114;28;20439;-68
2024/03/19 08:33:36;;;;;;;8.17;7.77;;;21.40;70.60;;;;;;4990577;28;20451;-63
2024/03/19 08:36:04;;;;;;;9.60;8.73;;;21.40;70.50;;;;;;4995431;28;20474;-64
2024/03/19 08:38:31;;;;;;;7.83;7.50;;;21.40;70.50;;;;;;4995364;28;20466;-64
2024/03/19 08:40:59;;;;;;;8.33;7.83;;;21.40;70.40;;;;;;4995948;28;20439;-67
2024/03/19 08:43:26;;;;;;;8.10;7.80;;;21.40;70.20;;;;;;4995409;28;20478;-62
2024/03/19 08:45:53;;;;;;;9.07;8.50;;;21.50;70.30;;;;;;4983295;28;20530;-63
2024/03/19 08:48:20;;;;;;;8.77;8.17;;;21.60;69.90;;;;;;4991070;28;20450;-59
2024/03/19 08:50:47;;;;;;;8.10;7.80;;;21.70;69.40;;;;;;4995348;28;20447;-67
2024/03/19 08:53:13;;;;;;;8.10;7.80;;;21.60;68.70;;;;;;4995425;28;20816;-64
2024/03/19 08:55:40;;;;;;;9.30;8.83;;;21.70;68.80;;;;;;4988639;28;20979;-64
2024/03/19 08:58:09;;;;;;;8.80;8.40;;;21.80;69.00;;;;;;4995293;28;20578;-64
2024/03/19 09:00:39;;;;;;;9.90;9.40;;;21.80;69.10;;;;;;4995322;28;20462;-64
2024/03/19 09:03:08;;;;;;;8.87;8.33;;;21.90;68.80;;;;;;4989421;28;20884;-64
2024/03/19 09:05:35;;;;;;;8.53;8.23;;;22.00;68.50;;;;;;4992357;28;20442;-65
2024/03/19 09:08:02;;;;;;;9.17;8.87;;;22.00;68.10;;;;;;4994951;28;20435;-62
2024/03/19 09:10:29;;;;;;;12.00;9.10;;;22.10;68.10;;;;;;4993797;28;20471;-66
2024/03/19 09:12:55;;;;;;;9.33;8.77;;;22.10;67.90;;;;;;4994376;28;20796;-61
2024/03/19 09:15:26;;;;;;;8.80;8.37;;;22.20;67.90;;;;;;4987068;28;20798;-61
2024/03/19 09:17:54;;;;;;;8.70;8.30;;;22.20;67.70;;;;;;4994773;28;20883;-65
2024/03/19 09:20:22;;;;;;;9.03;8.63;;;22.20;67.50;;;;;;4994891;28;20479;-65
2024/03/19 09:22:49;;;;;;;8.00;7.70;;;22.30;67.40;;;;;;4995019;28;20477;-64
2024/03/19 09:25:16;;;;;;;9.60;9.00;;;22.30;67.10;;;;;;4994526;28;20447;-64
2024/03/19 09:27:43;;;;;;;9.00;8.70;;;22.30;66.20;;;;;;4992302;28;20447;-65
2024/03/19 09:30:12;;;;;;;9.73;9.40;;;22.20;66.70;;;;;;4988750;28;20462;-63
2024/03/19 09:32:40;;;;;;;8.73;8.43;;;22.20;66.70;;;;;;4994559;28;20447;-61
2024/03/19 09:35:08;;;;;;;8.60;8.30;;;22.20;66.80;;;;;;4994549;28;20439;-60
2024/03/19 09:37:36;;;;;;;9.73;9.33;;;22.20;66.70;;;;;;4994349;28;20466;-64
2024/03/19 09:40:03;;;;;;;8.70;8.30;;;22.20;66.80;;;;;;4989690;28;20979;-63
2024/03/19 09:42:30;;;;;;;9.23;8.70;;;22.20;66.70;;;;;;4994434;28;20471;-65
2024/03/19 09:44:57;;;;;;;8.73;8.43;;;22.20;66.80;;;;;;4993386;28;20484;-63
2024/03/19 09:47:26;;;;;;;9.40;9.07;;;22.30;66.90;;;;;;4994060;28;20447;-63
2024/03/19 09:49:54;;;;;;;8.97;8.50;;;22.20;66.60;;;;;;4994278;28;20467;-63
2024/03/19 09:52:22;;;;;;;7.83;7.63;;;22.30;66.30;;;;;;4986637;28;20524;-63
2024/03/19 09:54:49;;;;;;;9.47;8.77;;;22.30;66.10;;;;;;4993244;28;20439;-64
2024/03/19 09:57:18;;;;;;;9.47;8.90;;;22.30;65.90;;;;;;4993629;28;20819;-62
2024/03/19 09:59:46;;;;;;;9.47;8.93;;;22.30;66.10;;;;;;4992995;28;20471;-62
2024/03/19 10:02:17;;;;;;;9.37;8.87;;;22.40;66.00;;;;;;4988414;28;20439;-63
2024/03/19 10:04:46;;;;;;;9.60;9.10;;;22.40;65.70;;;;;;4994149;28;20642;-66
2024/03/19 10:07:15;;;;;;;10.27;9.63;;;22.40;66.00;;;;;;4993710;28;20447;-60
2024/03/19 10:09:45;;;;;;;9.90;9.50;;;22.40;65.90;;;;;;4993935;28;20470;-63
2024/03/19 10:12:12;;;;;;;9.63;9.23;;;22.30;66.20;;;;;;4992133;28;20443;-66
2024/03/19 10:14:39;;;;;;;10.10;9.80;;;22.30;66.60;;;;;;4991751;28;20443;-64
2024/03/19 10:17:06;;;;;;;9.20;8.90;;;22.30;66.70;;;;;;4993738;28;20442;-64
2024/03/19 10:19:34;;;;;;;10.00;9.50;;;22.30;66.80;;;;;;4993612;28;20482;-63
2024/03/19 10:22:01;;;;;;;9.77;9.47;;;22.30;67.70;;;;;;4993860;28;20446;-64
2024/03/19 10:24:29;;;;;;;9.70;9.40;;;22.40;67.40;;;;;;4991874;28;20478;-63
2024/03/19 10:26:55;;;;;;;10.27;9.87;;;22.40;66.90;;;;;;4994412;28;20811;-65
2024/03/19 10:29:22;;;;;;;10.30;10.00;;;22.30;67.30;;;;;;4996348;28;20474;-65
2024/03/19 10:31:49;;;;;;;9.20;8.90;;;22.30;67.30;;;;;;4994315;28;20439;-65
2024/03/19 10:34:19;;;;;;;9.37;9.00;;;22.40;67.30;;;;;;4994057;28;20446;-66
2024/03/19 10:36:48;;;;;;;9.53;9.13;;;22.40;67.10;;;;;;4993944;28;20443;-62
2024/03/19 10:39:16;;;;;;;9.20;8.80;;;22.40;67.10;;;;;;4985594;28;20463;-66
2024/03/19 10:41:46;;;;;;;9.03;8.73;;;22.40;66.90;;;;;;4993665;28;21028;-68
2024/03/19 10:44:16;;;;;;;9.50;9.00;;;22.50;66.60;;;;;;4993863;28;20938;-67
2024/03/19 10:46:44;;;;;;;9.60;9.20;;;22.50;67.20;;;;;;4983493;28;20440;-65
2024/03/19 10:49:15;;;;;;;9.90;9.50;;;22.50;66.30;;;;;;4993889;28;20470;-68
2024/03/19 10:51:43;;;;;;;9.73;9.43;;;22.50;66.40;;;;;;4994789;28;20867;-71
2024/03/19 10:54:11;;;;;;;9.27;8.97;;;22.50;66.60;;;;;;4994054;28;20462;-69
2024/03/19 10:56:38;;;;;;;9.80;9.37;;;22.50;66.70;;;;;;4993736;28;20530;-68
2024/03/19 10:59:09;;;;;;;9.47;9.07;;;22.50;66.60;;;;;;4991505;28;20899;-70
2024/03/19 11:01:45;;;;;;;9.20;8.70;;;22.50;66.60;;;;;;4993814;28;20446;-68
2024/03/19 11:04:14;;;;;;;9.07;8.77;;;22.50;66.60;;;;;;4995461;28;20489;-68
2024/03/19 11:06:40;;;;;;;10.13;9.60;;;22.50;66.60;;;;;;4986394;28;20455;-67
2024/03/19 11:09:19;;;;;;;9.30;8.90;;;22.50;66.60;;;;;;4994723;28;20471;-68
2024/03/19 11:11:50;;;;;;;8.97;8.70;;;22.50;66.30;;;;;;4993122;28;20447;-68
2024/03/19 11:14:18;;;;;;;9.80;9.40;;;22.60;66.30;;;;;;4993999;28;20444;-63
2024/03/19 11:16:46;;;;;;;9.53;9.03;;;22.50;66.20;;;;;;4993294;28;20447;-68
2024/03/19 11:19:20;;;;;;;8.93;8.63;;;22.60;66.20;;;;;;4993771;28;20471;-68
2024/03/19 11:21:47;;;;;;;10.70;10.20;;;22.60;66.10;;;;;;4994373;28;20936;-67
2024/03/19 11:24:23;;;;;;;9.20;8.70;;;22.70;66.00;;;;;;4993988;28;20478;-68
2024/03/19 11:26:53;;;;;;;9.80;9.40;;;22.80;65.70;;;;;;4993097;28;20447;-67
2024/03/19 11:29:23;;;;;;;8.23;7.93;;;22.90;65.50;;;;;;4993169;28;20513;-66
2024/03/19 11:31:50;;;;;;;8.60;8.20;;;22.90;65.40;;;;;;4983936;28;20514;-61
2024/03/19 11:34:16;;;;;;;8.73;8.43;;;23.00;65.80;;;;;;4992537;28;20439;-64
2024/03/19 11:36:46;;;;;;;8.90;8.60;;;23.00;65.50;;;;;;4992034;28;20816;-63
2024/03/19 11:39:13;;;;;;;9.63;9.03;;;23.10;65.30;;;;;;4992687;28;20466;-61
2024/03/19 11:41:40;;;;;;;8.30;8.10;;;23.20;65.00;;;;;;4992540;28;20929;-64
2024/03/19 11:44:08;;;;;;;8.00;7.70;;;23.20;64.70;;;;;;4991892;28;20471;-64
2024/03/19 11:46:36;;;;;;;7.50;7.30;;;23.20;64.60;;;;;;4992135;28;20502;-67
2024/03/19 11:49:03;;;;;;;8.10;7.80;;;23.30;64.60;;;;;;4992444;28;20558;-66
2024/03/19 11:51:30;;;;;;;7.80;7.60;;;23.30;64.40;;;;;;4989602;28;20844;-63
2024/03/19 11:54:00;;;;;;;8.20;8.00;;;23.30;64.00;;;;;;4981959;28;20435;-63
2024/03/19 11:56:27;;;;;;;7.80;7.50;;;23.10;62.90;;;;;;4993388;28;20809;-63
2024/03/19 11:58:55;;;;;;;7.87;7.67;;;23.00;63.50;;;;;;4993909;28;20490;-64
2024/03/19 12:01:22;;;;;;;8.30;8.00;;;22.90;63.90;;;;;;4992808;28;20450;-68
2024/03/19 12:03:50;;;;;;;8.57;8.17;;;22.90;63.30;;;;;;4988029;28;20479;-66
2024/03/19 12:06:17;;;;;;;7.90;7.50;;;23.00;63.80;;;;;;4986134;28;20442;-65
2024/03/19 12:08:44;;;;;;;8.17;7.90;;;23.10;63.90;;;;;;4995173;28;20836;-65
2024/03/19 12:11:14;;;;;;;7.97;7.77;;;23.20;63.90;;;;;;4998178;28;20970;-64
2024/03/19 12:13:41;;;;;;;8.43;8.03;;;23.20;63.60;;;;;;4998215;28;20490;-68
2024/03/19 12:16:09;;;;;;;8.20;7.90;;;23.20;63.50;;;;;;4996136;28;20442;-68
2024/03/19 12:18:36;;;;;;;8.77;8.47;;;23.30;63.50;;;;;;4998447;28;20443;-65
2024/03/19 12:21:05;;;;;;;8.40;8.10;;;23.20;63.40;;;;;;4989599;28;20450;-66
2024/03/19 12:23:31;;;;;;;8.27;7.90;;;23.30;63.40;;;;;;4997834;28;20446;-65
2024/03/19 12:25:58;;;;;;;8.30;8.00;;;23.40;63.30;;;;;;4997496;28;20446;-67
2024/03/19 12:28:25;;;;;;;9.27;8.77;;;23.30;63.10;;;;;;4997406;28;20438;-65
2024/03/19 12:30:54;;;;;;;8.67;8.27;;;23.40;62.90;;;;;;4990309;28;20442;-69
2024/03/19 12:33:37;;;;;;;7.93;7.53;;;23.40;62.80;;;;;;4998705;28;20455;-67
2024/03/19 12:36:06;;;;;;;8.67;8.07;;;23.40;63.30;;;;;;4989965;28;20478;-66
2024/03/19 12:38:33;;;;;;;9.73;9.10;;;23.40;62.70;;;;;;4998273;28;20450;-68
2024/03/19 12:41:00;;;;;;;8.50;8.10;;;23.50;63.00;;;;;;4994047;28;20447;-65
2024/03/19 12:43:26;;;;;;;8.17;7.87;;;23.50;62.80;;;;;;4993542;28;20443;-64
2024/03/19 12:45:53;;;;;;;7.90;7.60;;;23.50;62.70;;;;;;4997730;28;20494;-64
2024/03/19 12:48:20;;;;;;;7.67;7.47;;;23.50;62.90;;;;;;4997978;28;20446;-64